Time;durP1;ratioP1;P1;durP2;ratioP2;P2;SDS_P1;SDS_P2;PMS_P1;PMS_P2;Temp;Humidity;BMP_temperature;BMP_pressure;BME280_temperature;BME280_humidity;BME280_pressure;Samples;Min_cycle;Max_cycle;Signal;HPM_P1;HPM_P2
2023/10/03 04:00:22;;;;;;;;;;;17.20;99.90;;;;;;5983427;23;20409;-63
2023/10/03 04:02:48;;;;;;;;;;;17.10;99.90;;;;;;4953526;29;20266;-65
2023/10/03 04:05:18;;;;;;;;;;;17.20;99.90;;;;;;4957284;28;19914;-64
2023/10/03 04:07:43;;;;;;;;;;;17.20;99.90;;;;;;4955284;29;19907;-64
2023/10/03 04:10:13;;;;;;;;;;;17.20;99.90;;;;;;4956702;28;19928;-64
2023/10/03 04:12:42;;;;;;;;;;;17.20;99.90;;;;;;4956804;28;19997;-64
2023/10/03 04:15:09;;;;;;;;;;;17.30;99.90;;;;;;4956763;29;19910;-64
2023/10/03 04:17:34;;;;;;;;;;;17.30;99.90;;;;;;4957168;28;19989;-63
2023/10/03 04:20:00;;;;;;;;;;;17.30;99.90;;;;;;4956081;29;19946;-62
2023/10/03 04:22:28;;;;;;;;;;;17.30;99.90;;;;;;4955808;29;19910;-63
2023/10/03 04:24:55;;;;;;;;;;;17.10;99.90;;;;;;4956925;28;19914;-62
2023/10/03 04:27:20;;;;;;;;;;;17.20;99.90;;;;;;4956583;28;19977;-62
2023/10/03 04:29:47;;;;;;;;;;;17.10;99.90;;;;;;4956647;29;19907;-62
2023/10/03 04:32:12;;;;;;;;;;;17.00;99.90;;;;;;4956176;29;19907;-62
2023/10/03 04:34:38;;;;;;;;;;;17.00;99.90;;;;;;4955954;29;19940;-62
2023/10/03 04:37:04;;;;;;;;;;;16.90;99.90;;;;;;4956456;29;19914;-63
2023/10/03 04:39:29;;;;;;;;;;;16.90;99.90;;;;;;4956523;28;19913;-62
2023/10/03 04:41:55;;;;;;;;;;;16.80;99.90;;;;;;4956192;29;19934;-62
2023/10/03 04:44:20;;;;;;;;;;;16.90;99.90;;;;;;4956351;29;20400;-62
2023/10/03 04:46:46;;;;;;;;;;;17.00;99.90;;;;;;4965453;28;20301;-62
2023/10/03 04:49:11;;;;;;;;;;;16.90;99.90;;;;;;4956399;29;20449;-62
2023/10/03 04:51:37;;;;;;;;;;;17.00;99.90;;;;;;4956428;29;20446;-62
2023/10/03 04:54:03;;;;;;;;;;;17.10;99.90;;;;;;4955529;29;20350;-62
2023/10/03 04:56:28;;;;;;;;;;;17.10;99.90;;;;;;4960472;28;19916;-62
2023/10/03 04:58:55;;;;;;;;;;;17.00;99.90;;;;;;4957200;29;19942;-62
2023/10/03 05:01:20;;;;;;;;;;;17.10;99.90;;;;;;4955860;28;19914;-62
2023/10/03 05:03:46;;;;;;;;;;;17.10;99.90;;;;;;4956102;29;20053;-62
2023/10/03 05:06:11;;;;;;;;;;;17.10;99.90;;;;;;4957858;29;19965;-62
2023/10/03 05:08:37;;;;;;;;;;;16.90;99.90;;;;;;4958551;29;19907;-62
2023/10/03 05:11:03;;;;;;;;;;;16.90;99.90;;;;;;4961966;28;19907;-62
2023/10/03 05:13:29;;;;;;;;;;;16.80;99.90;;;;;;4961748;28;20333;-62
2023/10/03 05:15:54;;;;;;;;;;;16.70;99.90;;;;;;4963445;29;19906;-62
2023/10/03 05:18:20;;;;;;;;;;;16.70;99.90;;;;;;4967986;29;19938;-64
2023/10/03 05:20:45;;;;;;;;;;;16.70;99.90;;;;;;4965003;29;19918;-63
2023/10/03 05:23:15;;;;;;;;;;;16.70;99.90;;;;;;4964717;28;19938;-63
2023/10/03 05:25:42;;;;;;;;;;;16.70;99.90;;;;;;4962610;28;19975;-62
2023/10/03 05:28:10;;;;;;;;;;;16.70;99.90;;;;;;4955759;28;19906;-63
2023/10/03 05:30:38;;;;;;;;;;;16.80;99.90;;;;;;4955044;28;19906;-63
2023/10/03 05:33:06;;;;;;;;;;;16.70;99.90;;;;;;4954770;28;19906;-63
2023/10/03 05:35:32;;;;;;;;;;;16.70;99.90;;;;;;4955143;28;19914;-64
2023/10/03 05:37:58;;;;;;;;;;;16.80;99.90;;;;;;4956016;28;19981;-62
2023/10/03 05:40:23;;;;;;;;;;;16.70;99.90;;;;;;4955770;29;19906;-62
2023/10/03 05:42:49;;;;;;;;;;;16.70;99.90;;;;;;4967661;28;19906;-63
2023/10/03 05:45:15;;;;;;;;;;;16.80;99.90;;;;;;4968149;29;19911;-63
2023/10/03 05:47:45;;;;;;;;;;;16.80;99.90;;;;;;4968370;29;19910;-64
2023/10/03 05:50:11;;;;;;;;;;;16.90;99.90;;;;;;4967713;28;20270;-63
2023/10/03 05:52:36;;;;;;;;;;;16.80;99.90;;;;;;4969185;28;19993;-62
2023/10/03 05:55:02;;;;;;;;;;;16.90;99.90;;;;;;4968774;28;19906;-63
2023/10/03 05:57:28;;;;;;;;;;;16.80;99.90;;;;;;4967027;29;20390;-63
2023/10/03 05:59:54;;;;;;;;;;;16.80;99.90;;;;;;4965740;29;19978;-63
2023/10/03 06:02:21;;;;;;;;;;;16.80;99.90;;;;;;4965930;28;19915;-64
2023/10/03 06:04:47;;;;;;;;;;;16.80;99.90;;;;;;4966981;28;20353;-63
2023/10/03 06:07:13;;;;;;;;;;;16.80;99.90;;;;;;4969876;29;19911;-63
2023/10/03 06:09:38;;;;;;;;;;;16.70;99.90;;;;;;4969336;28;20332;-63
2023/10/03 06:12:04;;;;;;;;;;;16.80;99.90;;;;;;4967725;29;19906;-63
2023/10/03 06:14:29;;;;;;;;;;;16.80;99.90;;;;;;4962588;29;19918;-62
2023/10/03 06:16:55;;;;;;;;;;;16.80;99.90;;;;;;4958806;29;19911;-63
2023/10/03 06:19:20;;;;;;;;;;;16.80;99.90;;;;;;4958592;29;19916;-63
2023/10/03 06:21:46;;;;;;;;;;;16.90;99.90;;;;;;4958346;29;19906;-63
2023/10/03 06:24:13;;;;;;;;;;;16.90;99.90;;;;;;4958295;28;19977;-63
2023/10/03 06:26:38;;;;;;;;;;;16.90;99.90;;;;;;4958549;28;19966;-62
2023/10/03 06:29:04;;;;;;;;;;;17.10;99.90;;;;;;4951200;29;20412;-63
2023/10/03 06:31:30;;;;;;;;;;;17.10;99.90;;;;;;4938773;29;19907;-63
2023/10/03 06:33:55;;;;;;;;;;;17.10;99.90;;;;;;4951195;29;19906;-63
2023/10/03 06:36:21;;;;;;;;;;;17.10;99.90;;;;;;4958966;29;19917;-67
2023/10/03 06:38:49;;;;;;;;;;;17.10;99.90;;;;;;4959850;28;19941;-65
2023/10/03 06:41:19;;;;;;;;;;;17.20;99.90;;;;;;4960878;28;19929;-65
2023/10/03 06:43:44;;;;;;;;;;;17.20;99.90;;;;;;4960167;28;20357;-64
2023/10/03 06:46:10;;;;;;;;;;;17.40;99.90;;;;;;4957778;29;19910;-61
2023/10/03 06:48:35;;;;;;;;;;;17.50;99.90;;;;;;4957782;29;19993;-64
2023/10/03 06:51:04;;;;;;;;;;;17.50;99.90;;;;;;4971234;28;19934;-66
2023/10/03 06:53:30;;;;;;;;;;;17.50;99.90;;;;;;4958710;28;20289;-64
2023/10/03 06:55:57;;;;;;;;;;;17.80;99.90;;;;;;4956133;29;19906;-66
2023/10/03 06:58:22;;;;;;;;;;;17.80;99.90;;;;;;4957687;28;19950;-65
2023/10/03 07:00:52;;;;;;;;;;;17.90;99.90;;;;;;4957069;29;19922;-64
2023/10/03 07:03:17;;;;;;;;;;;18.00;99.90;;;;;;4957933;29;19907;-63
2023/10/03 07:05:43;;;;;;;;;;;17.90;99.90;;;;;;4956059;29;20258;-61
2023/10/03 07:08:08;;;;;;;;;;;18.10;99.90;;;;;;4957330;29;19973;-64
2023/10/03 07:10:33;;;;;;;;;;;18.10;99.90;;;;;;4956473;28;19989;-64
2023/10/03 07:13:01;;;;;;;;;;;18.00;99.90;;;;;;4957616;29;19913;-63
2023/10/03 07:15:28;;;;;;;;;;;18.10;99.90;;;;;;4956120;28;19913;-66
2023/10/03 07:17:53;;;;;;;;;;;18.20;99.90;;;;;;4954889;28;20605;-66
2023/10/03 07:20:19;;;;;;;;;;;18.30;99.90;;;;;;4956079;29;19993;-66
2023/10/03 07:22:44;;;;;;;;;;;18.30;99.90;;;;;;4955379;29;20357;-65
2023/10/03 07:25:11;;;;;;;;;;;18.40;99.90;;;;;;4955689;29;19910;-65
2023/10/03 07:27:41;;;;;;;;;;;18.40;99.90;;;;;;4957407;28;19910;-65
2023/10/03 07:30:08;;;;;;;;;;;18.40;99.90;;;;;;4972513;28;19906;-64
2023/10/03 07:32:34;;;;;;;;;;;18.40;99.90;;;;;;4957557;29;19928;-64
2023/10/03 07:35:00;;;;;;;;;;;18.50;99.90;;;;;;4957573;28;19913;-64
2023/10/03 07:37:25;;;;;;;;;;;18.50;99.90;;;;;;4957247;28;19910;-65
2023/10/03 07:39:51;;;;;;;;;;;18.60;99.90;;;;;;4957085;29;19914;-65
2023/10/03 07:42:18;;;;;;;;;;;18.70;99.90;;;;;;4957115;29;19906;-64
2023/10/03 07:44:43;;;;;;;;;;;18.80;99.90;;;;;;4957507;28;19937;-66
2023/10/03 07:47:09;;;;;;;;;;;18.90;99.90;;;;;;4957648;29;19906;-65
2023/10/03 07:49:34;;;;;;;;;;;19.00;99.90;;;;;;4957115;29;19906;-64
2023/10/03 07:52:00;;;;;;;;;;;19.10;99.90;;;;;;4956844;29;19910;-64
2023/10/03 07:54:28;;;;;;;;;;;19.20;99.90;;;;;;4957141;29;19994;-64
2023/10/03 07:56:53;;;;;;;;;;;19.20;99.90;;;;;;4957477;28;19973;-63
2023/10/03 07:59:19;;;;;;;;;;;19.20;99.90;;;;;;4957250;28;19914;-64
2023/10/03 08:01:47;;;;;;;;;;;19.30;99.90;;;;;;4957196;29;20408;-64
2023/10/03 08:04:12;;;;;;;;;;;19.40;99.90;;;;;;4961841;29;19914;-64
2023/10/03 08:06:38;;;;;;;;;;;19.40;99.90;;;;;;4975938;28;20045;-65
2023/10/03 08:09:04;;;;;;;;;;;19.40;99.90;;;;;;4978272;28;19894;-65
2023/10/03 08:11:30;;;;;;;;;;;19.50;99.90;;;;;;4978164;28;19905;-64
2023/10/03 08:13:56;;;;;;;;;;;19.50;99.90;;;;;;4978683;29;19897;-63
2023/10/03 08:16:22;;;;;;;;;;;19.50;99.90;;;;;;4978367;29;20371;-63
2023/10/03 08:18:57;;;;;;;;;;;19.60;99.90;;;;;;4978834;28;19934;-64
2023/10/03 08:21:27;;;;;;;;;;;19.70;99.90;;;;;;4978098;28;19907;-63
2023/10/03 08:23:56;;;;;;;;;;;19.80;99.90;;;;;;4979755;28;19890;-65
2023/10/03 08:26:23;;;;;;;;;;;19.80;99.90;;;;;;4979449;28;19903;-65
2023/10/03 08:29:04;;;;;;;;;;;20.00;99.90;;;;;;4977293;28;20000;-64
2023/10/03 08:31:30;;;;;;;;;;;20.20;99.90;;;;;;4976481;28;19990;-64
2023/10/03 08:33:55;;;;;;;;;;;20.30;99.90;;;;;;4972788;29;19907;-65
2023/10/03 08:36:22;;;;;;;;;;;20.70;99.90;;;;;;4970842;29;19918;-62
2023/10/03 08:38:48;;;;;;;;;;;20.90;99.90;;;;;;4972178;28;19982;-66
2023/10/03 08:41:19;;;;;;;;;;;21.10;99.90;;;;;;4970772;29;19913;-65
2023/10/03 08:43:53;;;;;;;;;;;21.40;99.90;;;;;;4969445;29;19998;-65
2023/10/03 08:46:19;;;;;;;;;;;21.70;99.90;;;;;;4967893;29;19906;-65
2023/10/03 08:48:45;;;;;;;;;;;22.10;99.90;;;;;;4961386;29;19910;-64
2023/10/03 08:51:13;;;;;;;;;;;22.60;99.90;;;;;;4956376;29;20349;-66
2023/10/03 08:53:40;;;;;;;;;;;23.50;99.90;;;;;;4956290;29;19917;-65
2023/10/03 08:56:08;;;;;;;;;;;26.00;97.70;;;;;;4971788;28;19910;-65
2023/10/03 08:58:39;;;;;;;;;;;27.90;94.50;;;;;;4956818;28;19917;-67
2023/10/03 09:01:04;;;;;;;;;;;28.40;92.60;;;;;;4956404;28;19921;-64
2023/10/03 09:03:47;;;;;;;;;;;27.90;92.30;;;;;;4957640;29;19907;-65
2023/10/03 09:06:23;;;;;;;;;;;27.40;92.40;;;;;;4955629;28;19914;-65
2023/10/03 09:08:50;;;;;;;;;;;27.20;92.70;;;;;;4956042;28;20258;-65
2023/10/03 09:11:16;;;;;;;;;;;26.90;93.10;;;;;;4955646;28;19906;-65
2023/10/03 09:13:45;;;;;;;;;;;26.80;93.00;;;;;;4955756;28;19957;-65
2023/10/03 09:16:14;;;;;;;;;;;26.50;93.20;;;;;;4956153;28;19933;-65
2023/10/03 09:18:41;;;;;;;;;;;26.30;93.60;;;;;;4955926;29;19930;-64
2023/10/03 09:21:14;;;;;;;;;;;26.10;93.90;;;;;;4955377;28;20332;-65
2023/10/03 09:24:01;;;;;;;;;;;26.40;93.70;;;;;;4956333;29;19906;-65
2023/10/03 09:26:45;;;;;;;;;;;26.20;94.00;;;;;;4956372;28;19918;-65
2023/10/03 09:29:18;;;;;;;;;;;26.10;93.90;;;;;;4955557;29;19914;-65
2023/10/03 09:31:44;;;;;;;;;;;25.90;94.20;;;;;;4970800;28;20413;-65
2023/10/03 09:34:13;;;;;;;;;;;25.80;94.40;;;;;;4956498;29;20281;-65
2023/10/03 09:36:40;;;;;;;;;;;25.60;94.70;;;;;;4957683;28;19906;-66
2023/10/03 09:39:20;;;;;;;;;;;25.60;94.80;;;;;;4955965;28;20009;-64
2023/10/03 09:41:56;;;;;;;;;;;25.60;94.80;;;;;;4959893;28;19907;-63
2023/10/03 09:44:29;;;;;;;;;;;25.70;95.30;;;;;;4959396;29;20005;-64
2023/10/03 09:47:06;;;;;;;;;;;26.10;94.70;;;;;;4959247;29;19933;-64
2023/10/03 09:49:36;;;;;;;;;;;26.30;94.50;;;;;;4959117;28;19914;-65
2023/10/03 09:52:25;;;;;;;;;;;26.40;94.50;;;;;;4958628;28;20336;-65
2023/10/03 09:54:54;;;;;;;;;;;26.50;94.00;;;;;;4958797;28;19906;-64
2023/10/03 09:57:21;;;;;;;;;;;26.30;94.10;;;;;;4958881;29;20011;-63
2023/10/03 09:59:48;;;;;;;;;;;26.20;94.60;;;;;;4958888;28;19981;-64
2023/10/03 10:02:14;;;;;;;;;;;26.00;94.60;;;;;;4958633;28;19926;-64
2023/10/03 10:04:41;;;;;;;;;;;25.80;94.80;;;;;;4958403;28;20361;-65
2023/10/03 10:07:27;;;;;;;;;;;25.70;95.00;;;;;;4958953;28;19930;-64
2023/10/03 10:10:07;;;;;;;;;;;25.80;95.20;;;;;;4958482;28;19915;-64
2023/10/03 10:12:37;;;;;;;;;;;25.90;95.10;;;;;;4958804;28;19907;-64
2023/10/03 10:17:41;;;;;;;;;;;27.70;93.90;;;;;;4958954;29;19913;-64
2023/10/03 10:20:11;;;;;;;;;;;29.70;92.20;;;;;;4957811;28;20365;-64
2023/10/03 10:22:55;;;;;;;;;;;29.70;91.20;;;;;;4958017;28;19914;-63
2023/10/03 10:25:25;;;;;;;;;;;28.70;91.70;;;;;;4958096;28;20075;-64
2023/10/03 10:28:07;;;;;;;;;;;27.60;93.00;;;;;;4958200;28;19911;-63
2023/10/03 10:30:33;;;;;;;;;;;26.90;93.60;;;;;;4958541;28;19950;-63
2023/10/03 10:33:23;;;;;;;;;;;26.40;94.20;;;;;;4958061;29;19907;-63
2023/10/03 10:36:08;;;;;;;;;;;26.10;94.60;;;;;;4939746;29;19918;-64
2023/10/03 10:38:34;;;;;;;;;;;25.80;95.20;;;;;;4940788;29;19914;-63
2023/10/03 10:41:22;;;;;;;;;;;25.50;95.50;;;;;;4939722;29;20274;-65
2023/10/03 10:44:05;;;;;;;;;;;25.60;95.70;;;;;;4943868;29;20006;-64
2023/10/03 10:46:31;;;;;;;;;;;25.60;96.00;;;;;;4958495;29;19914;-64
2023/10/03 10:48:57;;;;;;;;;;;25.60;96.00;;;;;;4957959;29;20285;-65
2023/10/03 10:51:23;;;;;;;;;;;25.40;96.30;;;;;;4956589;28;20273;-64
2023/10/03 10:53:51;;;;;;;;;;;25.30;96.70;;;;;;4958037;28;19906;-63
2023/10/03 10:56:16;;;;;;;;;;;25.20;96.90;;;;;;4958514;29;19917;-64
2023/10/03 10:58:47;;;;;;;;;;;25.20;97.30;;;;;;4958142;28;19907;-63
2023/10/03 11:01:13;;;;;;;;;;;25.00;97.30;;;;;;4958335;28;19921;-64
2023/10/03 11:03:40;;;;;;;;;;;25.00;97.50;;;;;;4957318;29;19910;-65
2023/10/03 11:06:13;;;;;;;;;;;24.90;97.80;;;;;;4957433;29;19965;-66
2023/10/03 11:08:45;;;;;;;;;;;24.80;98.10;;;;;;4957545;29;19932;-63
2023/10/03 11:11:11;;;;;;;;;;;24.60;98.40;;;;;;4957601;29;19910;-61
2023/10/03 11:13:46;;;;;;;;;;;24.60;98.60;;;;;;4957781;29;19957;-63
2023/10/03 11:16:20;;;;;;;;;;;24.50;98.90;;;;;;4957159;29;19911;-61
2023/10/03 11:18:45;;;;;;;;;;;24.40;99.00;;;;;;4957250;28;19930;-62
2023/10/03 11:21:12;;;;;;;;;;;24.30;99.00;;;;;;4957024;29;19910;-64
2023/10/03 11:23:37;;;;;;;;;;;24.30;99.20;;;;;;4957529;28;19906;-62
2023/10/03 11:26:05;;;;;;;;;;;24.20;99.40;;;;;;4957135;29;20300;-63
2023/10/03 11:28:43;;;;;;;;;;;24.10;99.20;;;;;;4957440;28;19907;-64
2023/10/03 11:31:09;;;;;;;;;;;24.00;99.00;;;;;;4957725;29;19911;-63
2023/10/03 11:33:42;;;;;;;;;;;24.00;99.00;;;;;;4957480;28;19906;-62
2023/10/03 11:36:08;;;;;;;;;;;24.10;98.90;;;;;;4957670;28;19913;-63
2023/10/03 11:38:50;;;;;;;;;;;24.20;99.20;;;;;;4957136;29;19911;-62
2023/10/03 11:41:29;;;;;;;;;;;24.30;98.70;;;;;;4957235;29;19910;-62
2023/10/03 11:43:54;;;;;;;;;;;24.40;98.50;;;;;;4957450;28;19913;-67
2023/10/03 11:46:20;;;;;;;;;;;24.40;98.40;;;;;;4955344;29;20253;-64
2023/10/03 11:48:45;;;;;;;;;;;24.40;98.50;;;;;;4955061;29;19907;-64
2023/10/03 11:51:11;;;;;;;;;;;24.30;98.20;;;;;;4956076;28;19945;-66
2023/10/03 11:53:37;;;;;;;;;;;24.30;98.20;;;;;;4956685;28;19906;-64
2023/10/03 11:56:02;;;;;;;;;;;24.30;98.10;;;;;;4956675;29;20288;-64
2023/10/03 11:58:28;;;;;;;;;;;24.20;98.20;;;;;;4956502;29;19933;-64
2023/10/03 12:00:53;;;;;;;;;;;24.20;98.30;;;;;;4955326;29;19950;-66
2023/10/03 12:03:19;;;;;;;;;;;24.20;98.30;;;;;;4955988;28;19906;-65
2023/10/03 12:05:49;;;;;;;;;;;24.30;98.10;;;;;;4956763;28;19915;-64
2023/10/03 12:08:14;;;;;;;;;;;24.30;98.00;;;;;;4956666;28;19940;-63
2023/10/03 12:10:41;;;;;;;;;;;24.30;97.90;;;;;;4957039;29;19961;-63
2023/10/03 12:13:09;;;;;;;;;;;24.30;98.00;;;;;;4957229;28;19918;-66
2023/10/03 12:15:36;;;;;;;;;;;24.30;97.90;;;;;;4956550;28;20230;-65
2023/10/03 12:18:01;;;;;;;;;;;24.20;98.00;;;;;;4956590;29;19914;-66
2023/10/03 12:20:27;;;;;;;;;;;24.20;98.20;;;;;;4948061;29;19910;-66
2023/10/03 12:22:56;;;;;;;;;;;24.20;98.20;;;;;;4945681;29;19911;-64
2023/10/03 12:25:24;;;;;;;;;;;24.30;97.90;;;;;;4957147;28;20009;-64
2023/10/03 12:27:51;;;;;;;;;;;24.30;97.70;;;;;;4950868;28;19952;-64
2023/10/03 12:30:16;;;;;;;;;;;24.50;97.60;;;;;;4944028;28;19906;-64
2023/10/03 12:32:43;;;;;;;;;;;24.60;97.50;;;;;;4956581;28;20258;-63
2023/10/03 12:35:09;;;;;;;;;;;24.50;97.40;;;;;;4971248;28;19929;-65
2023/10/03 12:37:35;;;;;;;;;;;24.50;97.40;;;;;;4971324;28;20369;-64
2023/10/03 12:40:04;;;;;;;;;;;24.50;97.50;;;;;;4957268;28;19906;-65
2023/10/03 12:42:33;;;;;;;;;;;24.50;97.20;;;;;;4954426;28;19914;-65
2023/10/03 12:45:00;;;;;;;;;;;24.50;97.30;;;;;;4956216;29;20261;-63
2023/10/03 12:47:30;;;;;;;;;;;24.50;97.30;;;;;;4956389;28;19913;-65
2023/10/03 12:49:57;;;;;;;;;;;24.60;97.30;;;;;;4970651;28;19981;-65
2023/10/03 12:52:22;;;;;;;;;;;24.70;96.90;;;;;;4955905;28;19907;-66
2023/10/03 12:54:48;;;;;;;;;;;24.60;96.80;;;;;;4956274;29;19907;-66
2023/10/03 12:57:13;;;;;;;;;;;24.60;96.90;;;;;;4955555;29;19910;-65
2023/10/03 12:59:44;;;;;;;;;;;24.60;97.00;;;;;;4954995;29;19906;-65
2023/10/03 13:02:12;;;;;;;;;;;24.60;97.10;;;;;;4955351;28;19918;-64
2023/10/03 13:04:38;;;;;;;;;;;24.60;97.20;;;;;;4955593;28;20320;-65
2023/10/03 13:07:03;;;;;;;;;;;24.70;97.10;;;;;;4955302;29;19906;-66
2023/10/03 13:09:29;;;;;;;;;;;24.80;96.80;;;;;;4955631;29;20030;-63
2023/10/03 13:11:54;;;;;;;;;;;24.90;96.80;;;;;;4955358;28;20258;-67
2023/10/03 13:14:20;;;;;;;;;;;24.90;96.80;;;;;;4955151;29;20341;-66
2023/10/03 13:16:45;;;;;;;;;;;24.70;97.00;;;;;;4955272;29;20338;-66
2023/10/03 13:19:11;;;;;;;;;;;24.70;97.00;;;;;;4955833;29;20396;-65
2023/10/03 13:21:38;;;;;;;;;;;24.70;97.10;;;;;;4955399;29;20416;-66
2023/10/03 13:24:05;;;;;;;;;;;24.80;97.00;;;;;;4970021;28;20040;-66
2023/10/03 13:26:30;;;;;;;;;;;24.80;96.90;;;;;;4954726;28;19970;-66
2023/10/03 13:28:56;;;;;;;;;;;24.70;97.10;;;;;;4955300;29;19941;-67
2023/10/03 13:31:21;;;;;;;;;;;24.70;97.20;;;;;;4955986;29;19914;-67
2023/10/03 13:33:48;;;;;;;;;;;24.70;97.20;;;;;;4954805;29;19918;-67
2023/10/03 13:36:14;;;;;;;;;;;24.50;97.30;;;;;;4954666;28;19911;-66
2023/10/03 13:38:40;;;;;;;;;;;24.50;97.40;;;;;;4955119;28;19907;-67
2023/10/03 13:41:06;;;;;;;;;;;24.50;97.40;;;;;;4955144;28;20388;-67
2023/10/03 13:43:32;;;;;;;;;;;24.50;97.50;;;;;;4955513;29;19911;-65
2023/10/03 13:45:57;;;;;;;;;;;24.50;97.60;;;;;;4954719;28;20330;-65
2023/10/03 13:48:23;;;;;;;;;;;24.40;97.80;;;;;;4954409;29;19995;-66
2023/10/03 13:50:50;;;;;;;;;;;24.30;97.90;;;;;;4954817;29;19908;-65
2023/10/03 13:53:20;;;;;;;;;;;24.10;98.10;;;;;;4955122;28;19989;-66
2023/10/03 13:55:45;;;;;;;;;;;24.10;98.10;;;;;;4955128;29;19957;-66
2023/10/03 13:58:11;;;;;;;;;;;24.00;98.30;;;;;;4955341;29;20369;-66
2023/10/03 14:00:39;;;;;;;;;;;23.90;98.40;;;;;;4954619;28;19949;-66
2023/10/03 14:03:06;;;;;;;;;;;23.90;98.40;;;;;;4955020;28;20289;-67
2023/10/03 14:05:34;;;;;;;;;;;23.90;98.60;;;;;;4969488;28;19946;-66
2023/10/03 14:08:00;;;;;;;;;;;23.90;98.80;;;;;;4954988;28;19910;-67
2023/10/03 14:10:26;;;;;;;;;;;23.80;98.90;;;;;;4954875;29;19914;-66
2023/10/03 14:12:52;;;;;;;;;;;23.80;99.00;;;;;;4955056;28;20285;-67
2023/10/03 14:15:20;;;;;;;;;;;23.80;98.90;;;;;;4955736;28;19917;-68
2023/10/03 14:17:46;;;;;;;;;;;23.90;99.00;;;;;;4954829;28;19910;-67
2023/10/03 14:20:12;;;;;;;;;;;23.90;99.10;;;;;;4954896;28;20041;-67
2023/10/03 14:22:41;;;;;;;;;;;24.00;99.10;;;;;;4954714;29;20325;-67
2023/10/03 14:25:11;;;;;;;;;;;23.90;99.20;;;;;;4954740;28;19930;-66
2023/10/03 14:27:38;;;;;;;;;;;23.90;99.30;;;;;;4957794;28;20053;-66
2023/10/03 14:30:04;;;;;;;;;;;23.90;99.30;;;;;;4957775;29;19994;-66
2023/10/03 14:32:29;;;;;;;;;;;23.80;99.50;;;;;;4958018;29;19942;-65
2023/10/03 14:34:54;;;;;;;;;;;23.80;99.90;;;;;;4959518;29;19929;-66
2023/10/03 14:37:20;;;;;;;;;;;23.40;99.90;;;;;;4957585;29;19910;-66
2023/10/03 14:39:46;;;;;;;;;;;22.80;99.90;;;;;;4958636;28;20329;-67
2023/10/03 14:42:11;;;;;;;;;;;22.20;99.90;;;;;;4958446;29;19952;-67
2023/10/03 14:44:39;;;;;;;;;;;21.50;99.90;;;;;;4958365;28;19968;-67
2023/10/03 14:47:04;;;;;;;;;;;21.00;99.90;;;;;;4958394;28;19906;-68
2023/10/03 14:49:31;;;;;;;;;;;20.50;99.90;;;;;;4957765;29;20259;-67
2023/10/03 14:51:56;;;;;;;;;;;20.20;99.90;;;;;;4957506;28;19906;-67
2023/10/03 14:54:22;;;;;;;;;;;20.00;99.90;;;;;;4957728;28;19918;-67
2023/10/03 14:56:48;;;;;;;;;;;19.80;99.90;;;;;;4958148;29;19957;-67
2023/10/03 14:59:14;;;;;;;;;;;19.70;99.90;;;;;;4957887;28;19950;-68
2023/10/03 15:01:40;;;;;;;;;;;19.70;99.90;;;;;;4957756;28;19969;-68
2023/10/03 15:04:09;;;;;;;;;;;19.70;99.90;;;;;;4972537;28;19910;-68
2023/10/03 15:06:35;;;;;;;;;;;19.60;99.90;;;;;;4963636;28;19910;-68
2023/10/03 15:09:00;;;;;;;;;;;19.70;99.90;;;;;;4958683;29;20286;-66
2023/10/03 15:11:26;;;;;;;;;;;19.70;99.90;;;;;;4961239;29;19910;-68
2023/10/03 15:13:52;;;;;;;;;;;19.70;99.90;;;;;;4961519;28;19910;-68
2023/10/03 15:16:17;;;;;;;;;;;19.70;99.90;;;;;;4958338;29;19958;-68
2023/10/03 15:18:43;;;;;;;;;;;19.70;99.90;;;;;;4957945;29;19907;-68
2023/10/03 15:21:09;;;;;;;;;;;19.70;99.90;;;;;;4957733;28;20309;-67
2023/10/03 15:23:35;;;;;;;;;;;19.60;99.90;;;;;;4956322;28;19911;-67
2023/10/03 15:26:04;;;;;;;;;;;19.60;99.90;;;;;;4957296;28;19914;-67
2023/10/03 15:28:30;;;;;;;;;;;19.60;99.90;;;;;;4957506;28;19914;-67
2023/10/03 15:30:57;;;;;;;;;;;19.60;99.90;;;;;;4957218;28;19917;-67
2023/10/03 15:33:24;;;;;;;;;;;19.60;99.90;;;;;;4954613;28;20383;-68
2023/10/03 15:35:51;;;;;;;;;;;19.60;99.90;;;;;;4952451;28;19912;-68
2023/10/03 15:38:16;;;;;;;;;;;19.50;99.90;;;;;;4937250;29;19911;-68
2023/10/03 15:40:42;;;;;;;;;;;19.40;99.90;;;;;;4940410;29;19918;-67
2023/10/03 15:43:08;;;;;;;;;;;19.50;99.90;;;;;;4956739;29;20350;-66
2023/10/03 15:45:35;;;;;;;;;;;19.40;99.90;;;;;;4956816;29;20416;-68
2023/10/03 15:48:01;;;;;;;;;;;19.40;99.90;;;;;;4956909;28;19906;-67
2023/10/03 15:50:28;;;;;;;;;;;19.40;99.90;;;;;;4957414;28;19907;-67
2023/10/03 15:52:53;;;;;;;;;;;19.30;99.90;;;;;;4956411;28;19910;-67
2023/10/03 15:55:19;;;;;;;;;;;19.30;99.90;;;;;;4956699;28;19910;-67
2023/10/03 15:57:45;;;;;;;;;;;19.40;99.90;;;;;;4956704;29;20288;-67
2023/10/03 16:00:11;;;;;;;;;;;19.40;99.90;;;;;;4956370;28;20269;-66
2023/10/03 16:02:37;;;;;;;;;;;19.30;99.90;;;;;;4956721;28;19941;-67
2023/10/03 16:05:04;;;;;;;;;;;19.30;99.90;;;;;;4956040;28;20373;-65
2023/10/03 16:07:31;;;;;;;;;;;19.30;99.90;;;;;;4956465;28;19942;-67
2023/10/03 16:09:58;;;;;;;;;;;19.30;99.90;;;;;;4956629;28;19913;-67
2023/10/03 16:12:24;;;;;;;;;;;19.10;99.90;;;;;;4956269;28;19906;-67
2023/10/03 16:14:49;;;;;;;;;;;19.20;99.90;;;;;;4956763;29;19973;-66
2023/10/03 16:17:16;;;;;;;;;;;19.20;99.90;;;;;;4956160;29;19910;-67
2023/10/03 16:19:42;;;;;;;;;;;19.20;99.90;;;;;;4956552;28;19969;-64
2023/10/03 16:22:07;;;;;;;;;;;19.20;99.90;;;;;;4955262;28;19911;-64
2023/10/03 16:24:33;;;;;;;;;;;19.30;99.90;;;;;;4956142;29;19910;-64
2023/10/03 16:26:59;;;;;;;;;;;19.20;99.90;;;;;;4954711;28;19917;-64
2023/10/03 16:29:24;;;;;;;;;;;19.10;99.90;;;;;;4955971;29;19993;-65
2023/10/03 16:31:51;;;;;;;;;;;19.10;99.90;;;;;;4955049;29;19910;-65
2023/10/03 16:34:17;;;;;;;;;;;19.10;99.90;;;;;;4955194;28;19906;-64
2023/10/03 16:36:42;;;;;;;;;;;19.10;99.90;;;;;;4956194;29;19910;-65
2023/10/03 16:39:11;;;;;;;;;;;19.10;99.90;;;;;;4954967;29;19993;-65
2023/10/03 16:41:40;;;;;;;;;;;19.10;99.90;;;;;;4955881;28;19918;-65
2023/10/03 16:44:06;;;;;;;;;;;19.00;99.90;;;;;;4954893;28;19913;-65
2023/10/03 16:46:32;;;;;;;;;;;19.00;99.90;;;;;;4956035;28;20005;-66
2023/10/03 16:48:59;;;;;;;;;;;19.00;99.90;;;;;;4954949;28;19910;-66
2023/10/03 16:51:25;;;;;;;;;;;19.10;99.90;;;;;;4970326;28;19950;-65
2023/10/03 16:53:51;;;;;;;;;;;19.10;99.90;;;;;;4955846;28;19957;-65
2023/10/03 16:56:16;;;;;;;;;;;19.00;99.90;;;;;;4954839;29;19907;-65
2023/10/03 16:58:42;;;;;;;;;;;19.00;99.90;;;;;;4970416;28;19916;-65
2023/10/03 17:01:07;;;;;;;;;;;19.00;99.90;;;;;;4954840;28;19914;-65
2023/10/03 17:03:34;;;;;;;;;;;19.00;99.90;;;;;;4955767;28;20005;-65
2023/10/03 17:05:59;;;;;;;;;;;19.00;99.90;;;;;;4954975;28;19914;-65
2023/10/03 17:08:25;;;;;;;;;;;18.70;99.90;;;;;;4956150;29;19913;-65
2023/10/03 17:10:50;;;;;;;;;;;18.60;99.90;;;;;;4955671;29;20014;-65
2023/10/03 17:13:16;;;;;;;;;;;18.60;99.90;;;;;;4955804;29;19910;-65
2023/10/03 17:15:43;;;;;;;;;;;18.50;99.90;;;;;;4955841;28;19917;-65
2023/10/03 17:18:08;;;;;;;;;;;18.40;99.90;;;;;;4955586;28;20273;-65
2023/10/03 17:20:34;;;;;;;;;;;18.30;99.90;;;;;;4955127;28;19918;-65
2023/10/03 17:23:00;;;;;;;;;;;18.20;99.90;;;;;;4955944;29;19996;-64
2023/10/03 17:25:25;;;;;;;;;;;18.30;99.90;;;;;;4954834;28;19917;-64
2023/10/03 17:27:51;;;;;;;;;;;18.10;99.90;;;;;;4970711;28;19906;-66
2023/10/03 17:30:17;;;;;;;;;;;18.00;99.90;;;;;;4955740;28;19985;-64
2023/10/03 17:32:44;;;;;;;;;;;18.00;99.90;;;;;;4954227;28;19917;-64
2023/10/03 17:35:12;;;;;;;;;;;17.90;99.90;;;;;;4955939;28;19907;-65
2023/10/03 17:37:41;;;;;;;;;;;17.90;99.90;;;;;;4955489;29;20322;-65
2023/10/03 17:40:12;;;;;;;;;;;17.90;99.90;;;;;;4954444;29;19965;-65
2023/10/03 17:42:39;;;;;;;;;;;17.80;99.90;;;;;;4954728;28;20002;-65
2023/10/03 17:45:05;;;;;;;;;;;17.80;99.90;;;;;;4955047;28;20001;-64
2023/10/03 17:47:30;;;;;;;;;;;17.60;99.90;;;;;;4953367;28;20008;-65
2023/10/03 17:49:56;;;;;;;;;;;17.60;99.90;;;;;;4955141;29;19954;-64
2023/10/03 17:52:21;;;;;;;;;;;17.60;99.90;;;;;;4954928;29;19914;-65
2023/10/03 17:54:47;;;;;;;;;;;17.50;99.90;;;;;;4955246;29;20337;-64
2023/10/03 17:57:12;;;;;;;;;;;17.50;99.90;;;;;;4954179;29;19945;-64
2023/10/03 17:59:38;;;;;;;;;;;17.50;99.90;;;;;;4955202;29;19907;-65
2023/10/03 18:02:04;;;;;;;;;;;17.50;99.90;;;;;;4957848;28;20012;-65
2023/10/03 18:04:29;;;;;;;;;;;17.40;99.90;;;;;;4957442;28;20346;-65
2023/10/03 18:06:55;;;;;;;;;;;17.40;99.90;;;;;;4958849;29;19999;-65
2023/10/03 18:09:24;;;;;;;;;;;17.40;99.90;;;;;;4957534;29;20373;-64
2023/10/03 18:11:50;;;;;;;;;;;17.40;99.90;;;;;;4960810;28;19907;-66
2023/10/03 18:14:15;;;;;;;;;;;17.40;99.90;;;;;;4962968;28;19918;-66
2023/10/03 18:16:41;;;;;;;;;;;17.30;99.90;;;;;;4957997;29;19913;-65
2023/10/03 18:19:06;;;;;;;;;;;17.20;99.90;;;;;;4959128;28;19913;-66